sensor_id;sensor_type;location;lat;lon;timestamp;P1;durP1;ratioP1;P2;durP2;ratioP2
58878;SDS011;44660;42.664;23.266;2022-07-23T00:00:44;10.98;;;4.85;;
58878;SDS011;44660;42.664;23.266;2022-07-23T00:03:09;15.73;;;4.60;;
58878;SDS011;44660;42.664;23.266;2022-07-23T00:05:35;13.07;;;5.28;;
58878;SDS011;44660;42.664;23.266;2022-07-23T00:08:01;7.43;;;4.65;;
58878;SDS011;44660;42.664;23.266;2022-07-23T00:10:26;11.30;;;5.45;;
58878;SDS011;44660;42.664;23.266;2022-07-23T00:12:52;10.23;;;5.07;;
58878;SDS011;44660;42.664;23.266;2022-07-23T00:15:17;12.75;;;5.45;;
58878;SDS011;44660;42.664;23.266;2022-07-23T00:17:43;8.60;;;4.60;;
58878;SDS011;44660;42.664;23.266;2022-07-23T00:20:10;8.52;;;4.80;;
58878;SDS011;44660;42.664;23.266;2022-07-23T00:22:36;16.73;;;5.53;;
58878;SDS011;44660;42.664;23.266;2022-07-23T00:25:01;10.90;;;4.85;;
58878;SDS011;44660;42.664;23.266;2022-07-23T00:27:27;8.18;;;4.68;;
58878;SDS011;44660;42.664;23.266;2022-07-23T00:29:52;12.98;;;4.93;;
58878;SDS011;44660;42.664;23.266;2022-07-23T00:32:18;9.10;;;4.45;;
58878;SDS011;44660;42.664;23.266;2022-07-23T00:34:43;9.07;;;5.03;;
58878;SDS011;44660;42.664;23.266;2022-07-23T00:37:09;5.05;;;4.40;;
58878;SDS011;44660;42.664;23.266;2022-07-23T00:39:34;9.55;;;4.20;;
58878;SDS011;44660;42.664;23.266;2022-07-23T00:42:00;8.57;;;4.55;;
58878;SDS011;44660;42.664;23.266;2022-07-23T00:44:26;6.55;;;4.47;;
58878;SDS011;44660;42.664;23.266;2022-07-23T00:46:53;9.32;;;4.88;;
58878;SDS011;44660;42.664;23.266;2022-07-23T00:49:25;8.85;;;4.88;;
58878;SDS011;44660;42.664;23.266;2022-07-23T00:54:18;7.78;;;4.25;;
58878;SDS011;44660;42.664;23.266;2022-07-23T00:56:45;8.48;;;5.07;;
58878;SDS011;44660;42.664;23.266;2022-07-23T00:59:12;9.02;;;5.00;;
58878;SDS011;44660;42.664;23.266;2022-07-23T01:01:38;10.00;;;4.88;;
58878;SDS011;44660;42.664;23.266;2022-07-23T01:04:04;11.30;;;4.90;;
58878;SDS011;44660;42.664;23.266;2022-07-23T01:06:30;7.68;;;4.80;;
58878;SDS011;44660;42.664;23.266;2022-07-23T01:09:00;8.77;;;5.38;;
58878;SDS011;44660;42.664;23.266;2022-07-23T01:11:25;13.32;;;5.30;;
58878;SDS011;44660;42.664;23.266;2022-07-23T01:13:51;8.68;;;5.05;;
58878;SDS011;44660;42.664;23.266;2022-07-23T01:16:16;6.80;;;4.63;;
58878;SDS011;44660;42.664;23.266;2022-07-23T01:18:42;11.45;;;5.15;;
58878;SDS011;44660;42.664;23.266;2022-07-23T01:21:07;8.48;;;5.13;;
58878;SDS011;44660;42.664;23.266;2022-07-23T01:23:37;10.25;;;4.88;;
58878;SDS011;44660;42.664;23.266;2022-07-23T01:26:03;14.52;;;5.20;;
58878;SDS011;44660;42.664;23.266;2022-07-23T01:28:29;7.65;;;5.35;;
58878;SDS011;44660;42.664;23.266;2022-07-23T01:30:54;10.85;;;5.20;;
58878;SDS011;44660;42.664;23.266;2022-07-23T01:33:19;10.13;;;5.45;;
58878;SDS011;44660;42.664;23.266;2022-07-23T01:35:45;7.30;;;5.10;;
58878;SDS011;44660;42.664;23.266;2022-07-23T01:38:10;9.60;;;5.15;;
58878;SDS011;44660;42.664;23.266;2022-07-23T01:40:36;10.85;;;5.32;;
58878;SDS011;44660;42.664;23.266;2022-07-23T01:43:01;11.25;;;5.25;;
58878;SDS011;44660;42.664;23.266;2022-07-23T01:45:27;15.02;;;5.97;;
58878;SDS011;44660;42.664;23.266;2022-07-23T01:47:52;10.63;;;5.60;;
58878;SDS011;44660;42.664;23.266;2022-07-23T01:50:18;7.60;;;5.18;;
58878;SDS011;44660;42.664;23.266;2022-07-23T01:52:43;12.57;;;5.25;;
58878;SDS011;44660;42.664;23.266;2022-07-23T01:55:09;11.25;;;5.20;;
58878;SDS011;44660;42.664;23.266;2022-07-23T01:57:34;10.35;;;5.60;;
58878;SDS011;44660;42.664;23.266;2022-07-23T02:00:00;9.43;;;5.20;;
58878;SDS011;44660;42.664;23.266;2022-07-23T02:02:25;7.45;;;5.30;;
58878;SDS011;44660;42.664;23.266;2022-07-23T02:04:51;10.88;;;5.80;;
58878;SDS011;44660;42.664;23.266;2022-07-23T02:07:16;9.90;;;5.45;;
58878;SDS011;44660;42.664;23.266;2022-07-23T02:09:42;12.35;;;5.97;;
58878;SDS011;44660;42.664;23.266;2022-07-23T02:12:07;13.35;;;6.00;;
58878;SDS011;44660;42.664;23.266;2022-07-23T02:14:33;9.43;;;5.65;;
58878;SDS011;44660;42.664;23.266;2022-07-23T02:16:58;14.60;;;5.97;;
58878;SDS011;44660;42.664;23.266;2022-07-23T02:19:24;8.98;;;5.72;;
58878;SDS011;44660;42.664;23.266;2022-07-23T02:21:50;14.57;;;6.22;;
58878;SDS011;44660;42.664;23.266;2022-07-23T02:24:16;9.20;;;5.57;;
58878;SDS011;44660;42.664;23.266;2022-07-23T02:26:41;9.80;;;5.50;;
58878;SDS011;44660;42.664;23.266;2022-07-23T02:29:07;10.43;;;5.32;;
58878;SDS011;44660;42.664;23.266;2022-07-23T02:31:33;11.18;;;5.90;;
58878;SDS011;44660;42.664;23.266;2022-07-23T02:33:59;11.32;;;6.03;;
58878;SDS011;44660;42.664;23.266;2022-07-23T02:36:24;13.50;;;5.30;;
58878;SDS011;44660;42.664;23.266;2022-07-23T02:38:50;8.32;;;5.55;;
58878;SDS011;44660;42.664;23.266;2022-07-23T02:41:15;14.18;;;6.55;;
58878;SDS011;44660;42.664;23.266;2022-07-23T02:43:41;8.32;;;5.75;;
58878;SDS011;44660;42.664;23.266;2022-07-23T02:46:06;8.48;;;5.30;;
58878;SDS011;44660;42.664;23.266;2022-07-23T02:48:32;12.70;;;4.95;;
58878;SDS011;44660;42.664;23.266;2022-07-23T02:50:58;13.48;;;5.63;;
58878;SDS011;44660;42.664;23.266;2022-07-23T02:53:23;12.55;;;5.30;;
58878;SDS011;44660;42.664;23.266;2022-07-23T02:55:49;11.25;;;5.90;;
58878;SDS011;44660;42.664;23.266;2022-07-23T02:58:14;9.82;;;5.13;;
58878;SDS011;44660;42.664;23.266;2022-07-23T03:00:40;9.98;;;5.15;;
58878;SDS011;44660;42.664;23.266;2022-07-23T03:03:05;8.23;;;5.32;;
58878;SDS011;44660;42.664;23.266;2022-07-23T03:05:32;14.55;;;7.25;;
58878;SDS011;44660;42.664;23.266;2022-07-23T03:07:58;15.15;;;6.20;;
58878;SDS011;44660;42.664;23.266;2022-07-23T03:10:24;12.40;;;5.55;;
58878;SDS011;44660;42.664;23.266;2022-07-23T03:12:49;7.63;;;5.45;;
58878;SDS011;44660;42.664;23.266;2022-07-23T03:15:14;11.75;;;5.32;;
58878;SDS011;44660;42.664;23.266;2022-07-23T03:17:40;12.98;;;5.63;;
58878;SDS011;44660;42.664;23.266;2022-07-23T03:20:05;10.40;;;5.55;;
58878;SDS011;44660;42.664;23.266;2022-07-23T03:22:32;13.07;;;5.00;;
58878;SDS011;44660;42.664;23.266;2022-07-23T03:24:57;8.18;;;5.18;;
58878;SDS011;44660;42.664;23.266;2022-07-23T03:27:23;10.75;;;5.18;;
58878;SDS011;44660;42.664;23.266;2022-07-23T03:29:51;12.93;;;5.30;;
58878;SDS011;44660;42.664;23.266;2022-07-23T03:32:18;9.32;;;5.60;;
58878;SDS011;44660;42.664;23.266;2022-07-23T03:34:44;12.93;;;5.78;;
58878;SDS011;44660;42.664;23.266;2022-07-23T03:37:09;10.82;;;5.20;;
58878;SDS011;44660;42.664;23.266;2022-07-23T03:39:35;12.38;;;4.85;;
58878;SDS011;44660;42.664;23.266;2022-07-23T03:42:00;11.65;;;5.20;;
58878;SDS011;44660;42.664;23.266;2022-07-23T03:44:26;13.10;;;5.22;;
58878;SDS011;44660;42.664;23.266;2022-07-23T03:46:52;11.77;;;5.28;;
58878;SDS011;44660;42.664;23.266;2022-07-23T03:49:17;13.07;;;5.75;;
58878;SDS011;44660;42.664;23.266;2022-07-23T03:51:43;10.73;;;5.63;;
58878;SDS011;44660;42.664;23.266;2022-07-23T03:54:08;12.75;;;5.35;;
58878;SDS011;44660;42.664;23.266;2022-07-23T03:56:34;10.38;;;5.28;;
58878;SDS011;44660;42.664;23.266;2022-07-23T03:59:00;11.50;;;5.70;;
58878;SDS011;44660;42.664;23.266;2022-07-23T04:01:25;7.93;;;5.45;;
58878;SDS011;44660;42.664;23.266;2022-07-23T04:03:51;14.35;;;5.55;;
58878;SDS011;44660;42.664;23.266;2022-07-23T04:06:16;10.27;;;5.05;;
58878;SDS011;44660;42.664;23.266;2022-07-23T04:08:42;12.07;;;5.78;;
58878;SDS011;44660;42.664;23.266;2022-07-23T04:11:08;9.73;;;5.22;;
58878;SDS011;44660;42.664;23.266;2022-07-23T04:13:33;11.23;;;5.80;;
58878;SDS011;44660;42.664;23.266;2022-07-23T04:15:58;16.95;;;5.93;;
58878;SDS011;44660;42.664;23.266;2022-07-23T04:18:24;13.63;;;5.85;;
58878;SDS011;44660;42.664;23.266;2022-07-23T04:20:52;12.68;;;5.95;;
58878;SDS011;44660;42.664;23.266;2022-07-23T04:23:18;12.10;;;5.78;;
58878;SDS011;44660;42.664;23.266;2022-07-23T04:25:44;13.25;;;6.50;;
58878;SDS011;44660;42.664;23.266;2022-07-23T04:28:09;10.88;;;5.85;;
58878;SDS011;44660;42.664;23.266;2022-07-23T04:30:35;11.77;;;5.68;;
58878;SDS011;44660;42.664;23.266;2022-07-23T04:33:00;9.65;;;5.72;;
58878;SDS011;44660;42.664;23.266;2022-07-23T04:35:26;9.93;;;5.88;;
58878;SDS011;44660;42.664;23.266;2022-07-23T04:37:51;32.78;;;19.13;;
58878;SDS011;44660;42.664;23.266;2022-07-23T04:40:17;35.30;;;20.30;;
58878;SDS011;44660;42.664;23.266;2022-07-23T04:42:43;22.08;;;11.18;;
58878;SDS011;44660;42.664;23.266;2022-07-23T04:45:08;20.83;;;8.50;;
58878;SDS011;44660;42.664;23.266;2022-07-23T04:47:34;23.45;;;13.20;;
58878;SDS011;44660;42.664;23.266;2022-07-23T04:50:00;18.20;;;7.90;;
58878;SDS011;44660;42.664;23.266;2022-07-23T04:52:25;21.38;;;12.65;;
58878;SDS011;44660;42.664;23.266;2022-07-23T04:54:51;20.90;;;13.07;;
58878;SDS011;44660;42.664;23.266;2022-07-23T04:57:16;31.05;;;20.30;;
58878;SDS011;44660;42.664;23.266;2022-07-23T04:59:42;33.30;;;21.60;;
58878;SDS011;44660;42.664;23.266;2022-07-23T05:02:07;24.90;;;14.05;;
58878;SDS011;44660;42.664;23.266;2022-07-23T05:04:33;19.67;;;11.10;;
58878;SDS011;44660;42.664;23.266;2022-07-23T05:06:58;15.45;;;8.30;;
58878;SDS011;44660;42.664;23.266;2022-07-23T05:09:24;11.88;;;6.32;;
58878;SDS011;44660;42.664;23.266;2022-07-23T05:11:50;25.02;;;14.63;;
58878;SDS011;44660;42.664;23.266;2022-07-23T05:14:15;14.60;;;8.88;;
58878;SDS011;44660;42.664;23.266;2022-07-23T05:16:41;10.63;;;6.40;;
58878;SDS011;44660;42.664;23.266;2022-07-23T05:19:06;11.43;;;6.55;;
58878;SDS011;44660;42.664;23.266;2022-07-23T05:21:32;13.63;;;6.63;;
58878;SDS011;44660;42.664;23.266;2022-07-23T05:23:57;13.60;;;6.38;;
58878;SDS011;44660;42.664;23.266;2022-07-23T05:26:23;10.50;;;6.70;;
58878;SDS011;44660;42.664;23.266;2022-07-23T05:28:49;13.07;;;6.53;;
58878;SDS011;44660;42.664;23.266;2022-07-23T05:31:15;16.70;;;11.13;;
58878;SDS011;44660;42.664;23.266;2022-07-23T05:33:40;21.50;;;12.07;;
58878;SDS011;44660;42.664;23.266;2022-07-23T05:36:05;22.40;;;16.00;;
58878;SDS011;44660;42.664;23.266;2022-07-23T05:38:32;11.38;;;8.60;;
58878;SDS011;44660;42.664;23.266;2022-07-23T05:40:57;12.38;;;7.90;;
58878;SDS011;44660;42.664;23.266;2022-07-23T05:43:23;12.88;;;8.25;;
58878;SDS011;44660;42.664;23.266;2022-07-23T05:45:49;13.23;;;7.70;;
58878;SDS011;44660;42.664;23.266;2022-07-23T05:48:14;12.10;;;7.70;;
58878;SDS011;44660;42.664;23.266;2022-07-23T05:50:40;12.35;;;6.93;;
58878;SDS011;44660;42.664;23.266;2022-07-23T05:53:05;14.95;;;7.53;;
58878;SDS011;44660;42.664;23.266;2022-07-23T05:55:30;11.60;;;6.68;;
58878;SDS011;44660;42.664;23.266;2022-07-23T05:57:56;11.00;;;6.35;;
58878;SDS011;44660;42.664;23.266;2022-07-23T06:00:23;11.05;;;6.72;;
58878;SDS011;44660;42.664;23.266;2022-07-23T06:02:49;11.50;;;6.93;;
58878;SDS011;44660;42.664;23.266;2022-07-23T06:05:15;9.52;;;6.30;;
58878;SDS011;44660;42.664;23.266;2022-07-23T06:07:40;12.50;;;5.97;;
58878;SDS011;44660;42.664;23.266;2022-07-23T06:10:06;15.30;;;6.32;;
58878;SDS011;44660;42.664;23.266;2022-07-23T06:12:32;12.40;;;5.85;;
58878;SDS011;44660;42.664;23.266;2022-07-23T06:14:57;11.20;;;6.47;;
58878;SDS011;44660;42.664;23.266;2022-07-23T06:17:23;13.90;;;6.28;;
58878;SDS011;44660;42.664;23.266;2022-07-23T06:19:48;15.52;;;8.10;;
58878;SDS011;44660;42.664;23.266;2022-07-23T06:22:14;11.98;;;6.90;;
58878;SDS011;44660;42.664;23.266;2022-07-23T06:24:39;12.95;;;6.30;;
58878;SDS011;44660;42.664;23.266;2022-07-23T06:27:05;13.75;;;6.97;;
58878;SDS011;44660;42.664;23.266;2022-07-23T06:29:30;19.45;;;6.57;;
58878;SDS011;44660;42.664;23.266;2022-07-23T06:31:55;11.77;;;6.43;;
58878;SDS011;44660;42.664;23.266;2022-07-23T06:34:21;12.95;;;7.13;;
58878;SDS011;44660;42.664;23.266;2022-07-23T06:36:46;12.02;;;6.57;;
58878;SDS011;44660;42.664;23.266;2022-07-23T06:39:12;11.85;;;6.32;;
58878;SDS011;44660;42.664;23.266;2022-07-23T06:41:37;16.30;;;7.07;;
58878;SDS011;44660;42.664;23.266;2022-07-23T06:44:03;13.35;;;6.63;;
58878;SDS011;44660;42.664;23.266;2022-07-23T06:46:29;13.30;;;6.43;;
58878;SDS011;44660;42.664;23.266;2022-07-23T06:48:54;10.55;;;6.95;;
58878;SDS011;44660;42.664;23.266;2022-07-23T06:51:19;14.30;;;6.97;;
58878;SDS011;44660;42.664;23.266;2022-07-23T06:53:46;13.10;;;6.85;;
58878;SDS011;44660;42.664;23.266;2022-07-23T06:56:11;13.75;;;6.80;;
58878;SDS011;44660;42.664;23.266;2022-07-23T06:58:37;11.05;;;7.18;;
58878;SDS011;44660;42.664;23.266;2022-07-23T07:01:02;12.85;;;7.10;;
58878;SDS011;44660;42.664;23.266;2022-07-23T07:03:28;12.48;;;8.45;;
58878;SDS011;44660;42.664;23.266;2022-07-23T07:05:53;16.02;;;7.90;;
58878;SDS011;44660;42.664;23.266;2022-07-23T07:08:18;13.30;;;7.15;;
58878;SDS011;44660;42.664;23.266;2022-07-23T07:10:44;11.80;;;7.07;;
58878;SDS011;44660;42.664;23.266;2022-07-23T07:13:09;11.73;;;6.72;;
58878;SDS011;44660;42.664;23.266;2022-07-23T07:15:35;14.05;;;6.93;;
58878;SDS011;44660;42.664;23.266;2022-07-23T07:18:00;12.48;;;6.18;;
58878;SDS011;44660;42.664;23.266;2022-07-23T07:20:26;16.73;;;6.72;;
58878;SDS011;44660;42.664;23.266;2022-07-23T07:22:51;14.68;;;7.20;;
58878;SDS011;44660;42.664;23.266;2022-07-23T07:25:17;17.88;;;6.95;;
58878;SDS011;44660;42.664;23.266;2022-07-23T07:27:43;10.45;;;6.80;;
58878;SDS011;44660;42.664;23.266;2022-07-23T07:30:09;14.52;;;7.60;;
58878;SDS011;44660;42.664;23.266;2022-07-23T07:32:35;12.40;;;7.05;;
58878;SDS011;44660;42.664;23.266;2022-07-23T07:35:02;15.85;;;6.82;;
58878;SDS011;44660;42.664;23.266;2022-07-23T07:37:29;16.27;;;6.95;;
58878;SDS011;44660;42.664;23.266;2022-07-23T07:39:54;14.82;;;7.22;;
58878;SDS011;44660;42.664;23.266;2022-07-23T07:42:20;14.90;;;7.32;;
58878;SDS011;44660;42.664;23.266;2022-07-23T07:44:46;18.38;;;7.65;;
58878;SDS011;44660;42.664;23.266;2022-07-23T07:47:11;11.38;;;6.97;;
58878;SDS011;44660;42.664;23.266;2022-07-23T07:49:36;12.57;;;7.47;;
58878;SDS011;44660;42.664;23.266;2022-07-23T07:52:02;13.70;;;7.28;;
58878;SDS011;44660;42.664;23.266;2022-07-23T07:54:28;11.57;;;7.07;;
58878;SDS011;44660;42.664;23.266;2022-07-23T07:56:53;15.23;;;6.85;;
58878;SDS011;44660;42.664;23.266;2022-07-23T07:59:19;14.38;;;7.90;;
58878;SDS011;44660;42.664;23.266;2022-07-23T08:01:44;14.75;;;7.90;;
58878;SDS011;44660;42.664;23.266;2022-07-23T08:04:10;18.58;;;7.18;;
58878;SDS011;44660;42.664;23.266;2022-07-23T08:06:35;13.88;;;6.60;;
58878;SDS011;44660;42.664;23.266;2022-07-23T08:09:01;19.77;;;7.38;;
58878;SDS011;44660;42.664;23.266;2022-07-23T08:11:26;15.00;;;7.35;;
58878;SDS011;44660;42.664;23.266;2022-07-23T08:13:52;17.08;;;7.65;;
58878;SDS011;44660;42.664;23.266;2022-07-23T08:16:17;11.02;;;6.47;;
58878;SDS011;44660;42.664;23.266;2022-07-23T08:18:43;17.98;;;7.82;;
58878;SDS011;44660;42.664;23.266;2022-07-23T08:21:08;14.10;;;7.35;;
58878;SDS011;44660;42.664;23.266;2022-07-23T08:23:34;13.32;;;7.40;;
58878;SDS011;44660;42.664;23.266;2022-07-23T08:25:59;12.60;;;8.30;;
58878;SDS011;44660;42.664;23.266;2022-07-23T08:28:26;13.23;;;6.85;;
58878;SDS011;44660;42.664;23.266;2022-07-23T08:30:52;15.30;;;7.97;;
58878;SDS011;44660;42.664;23.266;2022-07-23T08:33:17;15.93;;;7.93;;
58878;SDS011;44660;42.664;23.266;2022-07-23T08:35:45;14.95;;;8.07;;
58878;SDS011;44660;42.664;23.266;2022-07-23T08:38:12;15.13;;;7.57;;
58878;SDS011;44660;42.664;23.266;2022-07-23T08:40:40;16.30;;;6.65;;
58878;SDS011;44660;42.664;23.266;2022-07-23T08:43:17;14.23;;;6.82;;
58878;SDS011;44660;42.664;23.266;2022-07-23T08:45:46;11.02;;;6.47;;
58878;SDS011;44660;42.664;23.266;2022-07-23T08:48:20;14.52;;;6.35;;
58878;SDS011;44660;42.664;23.266;2022-07-23T08:50:51;16.40;;;6.78;;
58878;SDS011;44660;42.664;23.266;2022-07-23T08:53:20;9.88;;;6.25;;
58878;SDS011;44660;42.664;23.266;2022-07-23T08:55:47;16.70;;;7.25;;
58878;SDS011;44660;42.664;23.266;2022-07-23T08:58:18;9.80;;;6.45;;
58878;SDS011;44660;42.664;23.266;2022-07-23T09:00:44;15.18;;;6.95;;
58878;SDS011;44660;42.664;23.266;2022-07-23T09:03:15;10.90;;;6.55;;
58878;SDS011;44660;42.664;23.266;2022-07-23T09:05:42;11.88;;;6.10;;
58878;SDS011;44660;42.664;23.266;2022-07-23T09:08:14;15.10;;;6.70;;
58878;SDS011;44660;42.664;23.266;2022-07-23T09:10:45;11.70;;;6.18;;
58878;SDS011;44660;42.664;23.266;2022-07-23T09:18:50;20.65;;;6.85;;
58878;SDS011;44660;42.664;23.266;2022-07-23T09:21:24;13.55;;;5.75;;
58878;SDS011;44660;42.664;23.266;2022-07-23T09:29:25;10.82;;;5.93;;
58878;SDS011;44660;42.664;23.266;2022-07-23T09:34:22;12.93;;;6.18;;
58878;SDS011;44660;42.664;23.266;2022-07-23T09:36:48;12.48;;;5.95;;
58878;SDS011;44660;42.664;23.266;2022-07-23T09:39:15;12.07;;;5.60;;
58878;SDS011;44660;42.664;23.266;2022-07-23T09:41:46;10.10;;;5.45;;
58878;SDS011;44660;42.664;23.266;2022-07-23T09:44:16;16.48;;;6.55;;
58878;SDS011;44660;42.664;23.266;2022-07-23T09:46:46;9.13;;;6.18;;
58878;SDS011;44660;42.664;23.266;2022-07-23T09:49:18;17.55;;;6.30;;
58878;SDS011;44660;42.664;23.266;2022-07-23T09:51:51;13.27;;;6.30;;
58878;SDS011;44660;42.664;23.266;2022-07-23T09:54:20;12.77;;;5.82;;
58878;SDS011;44660;42.664;23.266;2022-07-23T09:56:47;11.27;;;5.80;;
58878;SDS011;44660;42.664;23.266;2022-07-23T09:59:14;11.27;;;6.13;;
58878;SDS011;44660;42.664;23.266;2022-07-23T10:01:43;9.68;;;5.50;;
58878;SDS011;44660;42.664;23.266;2022-07-23T10:04:09;14.02;;;5.63;;
58878;SDS011;44660;42.664;23.266;2022-07-23T10:06:37;11.23;;;5.40;;
58878;SDS011;44660;42.664;23.266;2022-07-23T10:09:05;13.68;;;5.85;;
58878;SDS011;44660;42.664;23.266;2022-07-23T10:11:31;11.83;;;5.47;;
58878;SDS011;44660;42.664;23.266;2022-07-23T10:13:58;14.38;;;5.45;;
58878;SDS011;44660;42.664;23.266;2022-07-23T10:16:26;13.73;;;5.68;;
58878;SDS011;44660;42.664;23.266;2022-07-23T10:18:52;13.60;;;6.00;;
58878;SDS011;44660;42.664;23.266;2022-07-23T10:21:23;13.40;;;5.25;;
58878;SDS011;44660;42.664;23.266;2022-07-23T10:32:26;12.95;;;4.93;;
58878;SDS011;44660;42.664;23.266;2022-07-23T10:37:47;12.20;;;5.72;;
58878;SDS011;44660;42.664;23.266;2022-07-23T10:40:17;12.13;;;7.20;;
58878;SDS011;44660;42.664;23.266;2022-07-23T10:42:44;13.20;;;6.55;;
58878;SDS011;44660;42.664;23.266;2022-07-23T10:47:54;8.50;;;5.00;;
58878;SDS011;44660;42.664;23.266;2022-07-23T10:50:29;14.10;;;5.28;;
58878;SDS011;44660;42.664;23.266;2022-07-23T10:53:17;12.38;;;5.55;;
58878;SDS011;44660;42.664;23.266;2022-07-23T10:55:47;12.40;;;4.55;;
58878;SDS011;44660;42.664;23.266;2022-07-23T10:58:19;12.60;;;4.72;;
58878;SDS011;44660;42.664;23.266;2022-07-23T11:00:46;22.38;;;5.45;;
58878;SDS011;44660;42.664;23.266;2022-07-23T11:03:34;13.38;;;5.00;;
58878;SDS011;44660;42.664;23.266;2022-07-23T11:06:04;11.77;;;5.03;;
58878;SDS011;44660;42.664;23.266;2022-07-23T11:08:30;10.18;;;4.43;;
58878;SDS011;44660;42.664;23.266;2022-07-23T11:11:17;10.23;;;5.25;;
58878;SDS011;44660;42.664;23.266;2022-07-23T11:13:42;15.77;;;5.57;;
58878;SDS011;44660;42.664;23.266;2022-07-23T11:16:20;11.45;;;4.53;;
58878;SDS011;44660;42.664;23.266;2022-07-23T11:32:09;15.57;;;4.53;;
58878;SDS011;44660;42.664;23.266;2022-07-23T11:34:45;13.35;;;5.10;;
58878;SDS011;44660;42.664;23.266;2022-07-23T11:37:26;15.40;;;4.85;;
58878;SDS011;44660;42.664;23.266;2022-07-23T11:39:55;21.83;;;5.00;;
58878;SDS011;44660;42.664;23.266;2022-07-23T11:42:21;10.23;;;4.18;;
58878;SDS011;44660;42.664;23.266;2022-07-23T11:44:48;14.23;;;4.65;;
58878;SDS011;44660;42.664;23.266;2022-07-23T11:47:13;13.57;;;4.57;;
58878;SDS011;44660;42.664;23.266;2022-07-23T11:49:39;14.00;;;4.22;;
58878;SDS011;44660;42.664;23.266;2022-07-23T11:52:17;19.35;;;4.32;;
58878;SDS011;44660;42.664;23.266;2022-07-23T11:54:48;14.70;;;4.35;;
58878;SDS011;44660;42.664;23.266;2022-07-23T11:57:13;12.93;;;3.90;;
58878;SDS011;44660;42.664;23.266;2022-07-23T11:59:39;15.50;;;4.43;;
58878;SDS011;44660;42.664;23.266;2022-07-23T12:02:07;17.23;;;4.33;;
58878;SDS011;44660;42.664;23.266;2022-07-23T12:07:27;13.73;;;4.95;;
58878;SDS011;44660;42.664;23.266;2022-07-23T12:12:42;21.17;;;4.50;;
58878;SDS011;44660;42.664;23.266;2022-07-23T12:15:09;20.42;;;5.07;;
58878;SDS011;44660;42.664;23.266;2022-07-23T12:17:37;12.70;;;3.72;;
58878;SDS011;44660;42.664;23.266;2022-07-23T12:22:45;12.15;;;4.25;;
58878;SDS011;44660;42.664;23.266;2022-07-23T12:25:13;13.85;;;4.30;;
58878;SDS011;44660;42.664;23.266;2022-07-23T12:27:44;13.13;;;4.20;;
58878;SDS011;44660;42.664;23.266;2022-07-23T12:30:19;18.50;;;4.50;;
58878;SDS011;44660;42.664;23.266;2022-07-23T12:32:46;12.25;;;4.60;;
58878;SDS011;44660;42.664;23.266;2022-07-23T12:35:13;17.50;;;4.35;;
58878;SDS011;44660;42.664;23.266;2022-07-23T12:37:40;14.35;;;4.03;;
58878;SDS011;44660;42.664;23.266;2022-07-23T12:40:27;10.98;;;3.70;;
58878;SDS011;44660;42.664;23.266;2022-07-23T12:43:00;12.68;;;4.50;;
58878;SDS011;44660;42.664;23.266;2022-07-23T12:45:46;18.50;;;5.95;;
58878;SDS011;44660;42.664;23.266;2022-07-23T12:48:18;10.18;;;4.45;;
58878;SDS011;44660;42.664;23.266;2022-07-23T12:50:55;18.80;;;5.10;;
58878;SDS011;44660;42.664;23.266;2022-07-23T12:53:44;19.23;;;4.57;;
58878;SDS011;44660;42.664;23.266;2022-07-23T12:58:49;14.95;;;4.90;;
58878;SDS011;44660;42.664;23.266;2022-07-23T13:03:57;15.38;;;4.53;;
58878;SDS011;44660;42.664;23.266;2022-07-23T13:06:49;14.40;;;4.30;;
58878;SDS011;44660;42.664;23.266;2022-07-23T13:09:18;12.93;;;4.30;;
58878;SDS011;44660;42.664;23.266;2022-07-23T13:11:48;14.77;;;4.47;;
58878;SDS011;44660;42.664;23.266;2022-07-23T13:14:15;14.60;;;4.18;;
58878;SDS011;44660;42.664;23.266;2022-07-23T13:16:41;17.98;;;4.90;;
58878;SDS011;44660;42.664;23.266;2022-07-23T13:19:07;13.20;;;4.78;;
58878;SDS011;44660;42.664;23.266;2022-07-23T13:21:33;14.15;;;4.13;;
58878;SDS011;44660;42.664;23.266;2022-07-23T13:23:58;13.52;;;4.68;;
58878;SDS011;44660;42.664;23.266;2022-07-23T13:26:25;16.92;;;4.57;;
58878;SDS011;44660;42.664;23.266;2022-07-23T13:28:51;13.48;;;4.15;;
58878;SDS011;44660;42.664;23.266;2022-07-23T13:31:16;13.88;;;4.68;;
58878;SDS011;44660;42.664;23.266;2022-07-23T13:33:42;12.93;;;4.53;;
58878;SDS011;44660;42.664;23.266;2022-07-23T13:36:08;13.45;;;4.40;;
58878;SDS011;44660;42.664;23.266;2022-07-23T13:38:33;13.50;;;4.68;;
58878;SDS011;44660;42.664;23.266;2022-07-23T13:40:59;15.45;;;4.45;;
58878;SDS011;44660;42.664;23.266;2022-07-23T13:43:25;12.00;;;4.20;;
58878;SDS011;44660;42.664;23.266;2022-07-23T13:45:51;11.95;;;4.28;;
58878;SDS011;44660;42.664;23.266;2022-07-23T13:48:18;14.07;;;4.13;;
58878;SDS011;44660;42.664;23.266;2022-07-23T13:50:45;14.93;;;4.35;;
58878;SDS011;44660;42.664;23.266;2022-07-23T13:53:15;8.93;;;4.00;;
58878;SDS011;44660;42.664;23.266;2022-07-23T13:55:43;14.48;;;4.32;;
58878;SDS011;44660;42.664;23.266;2022-07-23T13:58:10;12.90;;;4.40;;
58878;SDS011;44660;42.664;23.266;2022-07-23T14:00:39;10.50;;;3.90;;
58878;SDS011;44660;42.664;23.266;2022-07-23T14:03:07;10.05;;;4.28;;
58878;SDS011;44660;42.664;23.266;2022-07-23T14:05:32;9.25;;;4.10;;
58878;SDS011;44660;42.664;23.266;2022-07-23T14:07:58;15.15;;;4.05;;
58878;SDS011;44660;42.664;23.266;2022-07-23T14:10:24;15.73;;;3.80;;
58878;SDS011;44660;42.664;23.266;2022-07-23T14:12:51;7.25;;;3.45;;
58878;SDS011;44660;42.664;23.266;2022-07-23T14:15:18;10.45;;;3.85;;
58878;SDS011;44660;42.664;23.266;2022-07-23T14:17:44;9.27;;;4.20;;
58878;SDS011;44660;42.664;23.266;2022-07-23T14:20:11;12.32;;;4.43;;
58878;SDS011;44660;42.664;23.266;2022-07-23T14:22:38;10.10;;;4.20;;
58878;SDS011;44660;42.664;23.266;2022-07-23T14:25:04;10.73;;;4.00;;
58878;SDS011;44660;42.664;23.266;2022-07-23T14:27:32;10.27;;;4.32;;
58878;SDS011;44660;42.664;23.266;2022-07-23T14:29:58;10.15;;;4.03;;
58878;SDS011;44660;42.664;23.266;2022-07-23T14:32:23;13.40;;;4.00;;
58878;SDS011;44660;42.664;23.266;2022-07-23T14:34:49;11.73;;;4.13;;
58878;SDS011;44660;42.664;23.266;2022-07-23T14:37:15;15.45;;;4.03;;
58878;SDS011;44660;42.664;23.266;2022-07-23T14:39:41;15.15;;;4.30;;
58878;SDS011;44660;42.664;23.266;2022-07-23T14:42:08;15.07;;;4.70;;
58878;SDS011;44660;42.664;23.266;2022-07-23T14:44:34;14.43;;;4.25;;
58878;SDS011;44660;42.664;23.266;2022-07-23T14:47:02;16.33;;;4.50;;
58878;SDS011;44660;42.664;23.266;2022-07-23T14:49:29;10.20;;;4.30;;
58878;SDS011;44660;42.664;23.266;2022-07-23T14:51:56;10.10;;;3.80;;
58878;SDS011;44660;42.664;23.266;2022-07-23T14:54:21;11.05;;;4.00;;
58878;SDS011;44660;42.664;23.266;2022-07-23T14:56:47;10.15;;;3.90;;
58878;SDS011;44660;42.664;23.266;2022-07-23T14:59:13;12.73;;;4.10;;
58878;SDS011;44660;42.664;23.266;2022-07-23T15:01:39;15.55;;;4.32;;
58878;SDS011;44660;42.664;23.266;2022-07-23T15:04:05;9.95;;;3.50;;
58878;SDS011;44660;42.664;23.266;2022-07-23T15:06:31;12.30;;;4.07;;
58878;SDS011;44660;42.664;23.266;2022-07-23T15:08:57;12.95;;;4.05;;
58878;SDS011;44660;42.664;23.266;2022-07-23T15:11:22;12.25;;;4.35;;
58878;SDS011;44660;42.664;23.266;2022-07-23T15:13:48;10.55;;;4.18;;
58878;SDS011;44660;42.664;23.266;2022-07-23T15:16:14;16.60;;;4.43;;
58878;SDS011;44660;42.664;23.266;2022-07-23T15:18:39;11.50;;;4.43;;